createdAt,value
2018-12-15T00:00:41.835Z,5.07
2018-12-15T00:03:14.687Z,5.11
2018-12-15T00:05:46.826Z,5.12
2018-12-15T00:08:17.151Z,5.12
2018-12-15T00:10:47.444Z,5.17
2018-12-15T00:13:17.624Z,5.17
2018-12-15T00:15:47.942Z,5.21
2018-12-15T00:18:18.123Z,5.22
2018-12-15T00:20:48.411Z,5.14
2018-12-15T00:23:18.795Z,5.13
2018-12-15T00:25:48.887Z,4.96
2018-12-15T00:28:19.081Z,4.78
2018-12-15T00:30:49.287Z,4.84
2018-12-15T00:33:19.410Z,4.88
2018-12-15T00:35:49.735Z,4.87
2018-12-15T00:38:19.830Z,4.85
2018-12-15T00:40:50.103Z,4.75
2018-12-15T00:43:20.393Z,4.70
2018-12-15T00:45:50.628Z,4.65
2018-12-15T00:48:21.567Z,4.70
2018-12-15T00:50:51.899Z,4.78
2018-12-15T00:53:22.080Z,4.80
2018-12-15T00:55:52.329Z,4.80
2018-12-15T00:58:22.641Z,4.82
2018-12-15T01:00:52.859Z,4.84
2018-12-15T01:03:23.238Z,4.85
2018-12-15T01:05:53.644Z,4.84
2018-12-15T01:08:23.881Z,4.79
2018-12-15T01:10:54.172Z,4.83
2018-12-15T01:13:24.543Z,4.91
2018-12-15T01:15:54.829Z,4.89
2018-12-15T01:18:24.946Z,4.89
2018-12-15T01:20:55.211Z,4.97
2018-12-15T01:23:25.453Z,5.00
2018-12-15T01:25:56.387Z,4.94
2018-12-15T01:28:27.101Z,4.91
2018-12-15T01:30:57.324Z,4.84
2018-12-15T01:33:27.589Z,4.90
2018-12-15T01:35:57.920Z,4.77
2018-12-15T01:38:28.177Z,4.80
2018-12-15T01:40:58.459Z,4.71
2018-12-15T01:43:28.637Z,4.71
2018-12-15T01:45:59.041Z,4.65
2018-12-15T01:48:29.310Z,4.71
2018-12-15T01:50:59.871Z,4.74
2018-12-15T01:53:30.165Z,4.65
2018-12-15T01:56:00.377Z,4.57
2018-12-15T01:58:30.642Z,4.58
2018-12-15T02:01:00.859Z,4.57
2018-12-15T02:03:30.956Z,4.55
2018-12-15T02:06:01.280Z,4.51
2018-12-15T02:08:31.453Z,4.57
2018-12-15T02:11:03.561Z,4.55
2018-12-15T02:13:33.788Z,4.64
2018-12-15T02:16:04.402Z,4.64
2018-12-15T02:18:35.080Z,4.67
2018-12-15T02:21:05.331Z,4.66
2018-12-15T02:23:35.512Z,4.60
2018-12-15T02:26:05.755Z,4.63
2018-12-15T02:28:35.940Z,4.75
2018-12-15T02:31:06.354Z,4.79
2018-12-15T02:33:36.616Z,4.81
2018-12-15T02:36:07.003Z,4.90
2018-12-15T02:38:37.316Z,4.95
2018-12-15T02:41:07.764Z,4.88
2018-12-15T02:43:38.439Z,4.95
2018-12-15T02:46:08.998Z,4.98
2018-12-15T02:48:39.248Z,5.03
2018-12-15T02:51:10.417Z,4.93
2018-12-15T02:53:40.713Z,4.91
2018-12-15T02:56:11.304Z,4.88
2018-12-15T02:58:41.459Z,4.76
2018-12-15T03:01:11.781Z,4.72
2018-12-15T03:03:41.988Z,4.56
2018-12-15T03:06:12.241Z,4.63
2018-12-15T03:08:42.482Z,4.70
2018-12-15T03:11:12.713Z,4.74
2018-12-15T03:13:42.990Z,4.74
2018-12-15T03:16:13.442Z,4.68
2018-12-15T03:18:43.659Z,4.73
2018-12-15T03:21:14.004Z,4.83
2018-12-15T03:23:44.862Z,4.83
2018-12-15T03:26:15.470Z,4.88
2018-12-15T03:28:45.676Z,4.87
2018-12-15T03:31:15.902Z,4.82
2018-12-15T03:33:46.173Z,4.89
2018-12-15T03:36:16.450Z,4.79
2018-12-15T03:38:46.714Z,4.82
2018-12-15T03:41:16.970Z,4.58
2018-12-15T03:43:47.085Z,4.58
2018-12-15T03:46:17.155Z,4.56
2018-12-15T03:48:47.316Z,4.49
2018-12-15T03:51:17.986Z,4.50
2018-12-15T03:53:48.146Z,4.52
2018-12-15T03:56:18.274Z,4.60
2018-12-15T03:58:48.532Z,4.64
2018-12-15T04:01:18.589Z,4.60
2018-12-15T04:03:48.855Z,4.74
2018-12-15T04:06:19.141Z,4.67
2018-12-15T04:08:49.324Z,4.71
2018-12-15T04:11:19.900Z,4.62
2018-12-15T04:13:50.016Z,4.66
2018-12-15T04:16:20.242Z,4.58
2018-12-15T04:18:50.426Z,4.54
2018-12-15T04:21:20.803Z,4.60
2018-12-15T04:23:51.114Z,4.51
2018-12-15T04:26:21.312Z,4.48
2018-12-15T04:28:53.334Z,4.50
2018-12-15T04:31:23.522Z,4.51
2018-12-15T04:33:53.704Z,4.32
2018-12-15T04:36:23.837Z,4.44
2018-12-15T04:38:54.040Z,4.51
2018-12-15T04:41:24.270Z,4.53
2018-12-15T04:43:54.524Z,4.52
2018-12-15T04:46:24.745Z,4.54
2018-12-15T04:48:54.875Z,4.49
2018-12-15T04:51:25.137Z,4.48
2018-12-15T04:53:55.539Z,4.55
2018-12-15T04:56:25.854Z,4.63
2018-12-15T04:58:56.192Z,4.69
2018-12-15T05:01:26.401Z,4.74
2018-12-15T05:03:56.615Z,4.66
2018-12-15T05:06:27.523Z,4.69
2018-12-15T05:08:57.717Z,4.56
2018-12-15T05:11:27.987Z,4.61
2018-12-15T05:13:58.202Z,4.66
2018-12-15T05:16:28.649Z,4.57
2018-12-15T05:18:58.881Z,4.54
2018-12-15T05:21:29.298Z,4.50
2018-12-15T05:23:59.618Z,4.46
2018-12-15T05:26:29.742Z,4.58
2018-12-15T05:29:01.161Z,4.50
2018-12-15T05:31:32.164Z,4.60
2018-12-15T05:34:02.403Z,4.63
2018-12-15T05:36:33.603Z,4.65
2018-12-15T05:39:05.102Z,4.66
2018-12-15T05:41:36.390Z,4.53
2018-12-15T05:44:06.501Z,4.55
2018-12-15T05:46:36.788Z,4.63
2018-12-15T05:49:06.903Z,4.68
2018-12-15T05:51:37.221Z,4.54
2018-12-15T05:54:07.481Z,4.60
2018-12-15T05:56:37.577Z,4.47
2018-12-15T05:59:07.811Z,4.48
2018-12-15T06:01:38.805Z,4.44
2018-12-15T06:04:08.914Z,4.50
2018-12-15T06:06:39.045Z,4.60
2018-12-15T06:09:09.461Z,4.71
2018-12-15T06:11:39.773Z,4.78
2018-12-15T06:14:10.704Z,4.81
2018-12-15T06:16:40.929Z,4.83
2018-12-15T06:19:11.149Z,4.87
2018-12-15T06:21:41.231Z,4.94
2018-12-15T06:24:11.585Z,4.99
2018-12-15T06:26:41.932Z,5.06
2018-12-15T06:29:12.080Z,5.10
2018-12-15T06:31:42.702Z,5.08
2018-12-15T06:34:12.658Z,5.15
2018-12-15T06:36:42.637Z,5.21
2018-12-15T06:39:12.619Z,5.29
2018-12-15T06:41:42.598Z,5.39
2018-12-15T06:44:12.584Z,5.46
2018-12-15T06:46:42.877Z,5.37
2018-12-15T06:49:13.237Z,5.33
2018-12-15T06:51:44.214Z,5.45
2018-12-15T06:54:14.554Z,5.53
2018-12-15T06:56:44.754Z,5.55
2018-12-15T06:59:15.012Z,5.53
2018-12-15T07:01:45.264Z,5.66
2018-12-15T07:04:15.459Z,5.76
2018-12-15T07:06:45.626Z,5.83
2018-12-15T07:09:15.787Z,5.94
2018-12-15T07:11:46.283Z,5.99
2018-12-15T07:14:16.411Z,6.04
2018-12-15T07:16:46.715Z,6.02
2018-12-15T07:19:17.035Z,6.17
2018-12-15T07:21:47.293Z,6.17
2018-12-15T07:24:17.560Z,6.20
2018-12-15T07:26:47.747Z,6.26
2018-12-15T07:29:18.089Z,6.36
2018-12-15T07:31:48.192Z,6.49
2018-12-15T07:34:18.454Z,6.39
2018-12-15T07:36:48.761Z,6.51
2018-12-15T07:39:19.066Z,6.72
2018-12-15T07:41:49.214Z,6.72
2018-12-15T07:44:19.465Z,6.64
2018-12-15T07:46:49.712Z,6.53
2018-12-15T07:49:20.015Z,6.61
2018-12-15T07:51:50.335Z,6.60
2018-12-15T07:54:20.775Z,6.73
2018-12-15T07:56:50.966Z,6.78
2018-12-15T07:59:21.109Z,6.75
2018-12-15T08:01:51.520Z,6.79
2018-12-15T08:04:21.817Z,6.80
2018-12-15T08:06:52.044Z,6.77
2018-12-15T08:09:22.398Z,6.82
2018-12-15T08:11:57.848Z,6.93
2018-12-15T08:14:28.359Z,6.93
2018-12-15T08:16:58.794Z,6.84
2018-12-15T08:19:29.706Z,6.82
2018-12-15T08:21:59.912Z,6.81
2018-12-15T08:24:30.120Z,6.83
2018-12-15T08:27:00.463Z,6.89
2018-12-15T08:29:30.924Z,7.05
2018-12-15T08:32:01.162Z,7.16
2018-12-15T08:34:31.344Z,7.13
2018-12-15T08:37:01.589Z,7.17
2018-12-15T08:39:31.725Z,7.10
2018-12-15T08:42:01.842Z,7.03
2018-12-15T08:44:32.249Z,6.95
2018-12-15T08:47:02.513Z,7.02
2018-12-15T08:49:32.891Z,7.25
2018-12-15T08:52:03.088Z,7.49
2018-12-15T08:54:33.348Z,7.55
2018-12-15T08:57:03.561Z,7.40
2018-12-15T08:59:33.744Z,7.37
2018-12-15T09:02:04.037Z,7.45
2018-12-15T09:04:34.298Z,7.43
2018-12-15T09:07:05.046Z,7.67
2018-12-15T09:09:35.188Z,7.80
2018-12-15T09:12:05.399Z,7.91
2018-12-15T09:14:36.805Z,7.83
2018-12-15T09:17:07.225Z,8.11
2018-12-15T09:19:37.712Z,8.29
2018-12-15T09:22:11.460Z,8.31
2018-12-15T09:24:41.324Z,8.43
2018-12-15T09:27:11.408Z,8.43
2018-12-15T09:29:41.500Z,8.29
2018-12-15T09:32:11.715Z,8.11
2018-12-15T09:34:41.990Z,8.22
2018-12-15T09:37:12.243Z,8.00
2018-12-15T09:39:43.606Z,7.74
2018-12-15T09:42:13.768Z,7.85
2018-12-15T09:44:43.929Z,7.89
2018-12-15T09:47:14.370Z,7.91
2018-12-15T09:49:44.729Z,7.85
2018-12-15T09:52:15.055Z,7.68
2018-12-15T09:54:45.359Z,7.62
2018-12-15T09:57:15.623Z,7.46
2018-12-15T09:59:46.021Z,7.63
2018-12-15T10:02:16.314Z,7.88
2018-12-15T10:04:46.592Z,7.89
2018-12-15T10:07:16.920Z,7.76
2018-12-15T10:09:47.325Z,7.71
2018-12-15T10:12:17.680Z,7.68
2018-12-15T10:14:47.858Z,7.52
2018-12-15T10:17:18.869Z,7.51
2018-12-15T10:19:49.147Z,7.52
2018-12-15T10:22:19.400Z,7.41
2018-12-15T10:24:49.682Z,7.19
2018-12-15T10:27:20.581Z,7.19
2018-12-15T10:29:56.244Z,7.34
2018-12-15T10:32:31.597Z,7.37
2018-12-15T10:35:01.850Z,7.47
2018-12-15T10:37:32.017Z,7.54
2018-12-15T10:40:03.211Z,7.46
2018-12-15T10:42:34.545Z,7.57
2018-12-15T10:45:05.239Z,7.52
2018-12-15T10:47:35.625Z,7.52
2018-12-15T10:50:06.976Z,7.29
2018-12-15T10:52:37.372Z,7.21
2018-12-15T10:55:09.078Z,7.23
2018-12-15T10:57:40.417Z,7.34
2018-12-15T11:00:17.933Z,7.34
2018-12-15T11:02:50.364Z,7.41
2018-12-15T11:05:20.779Z,7.42
2018-12-15T11:07:51.444Z,7.37
2018-12-15T11:10:21.730Z,7.37
2018-12-15T11:12:51.753Z,7.29
2018-12-15T11:15:22.000Z,7.05
2018-12-15T11:17:52.429Z,7.07
2018-12-15T11:20:22.698Z,7.05
2018-12-15T11:22:52.948Z,7.06
2018-12-15T11:25:23.267Z,7.04
2018-12-15T11:27:53.376Z,7.04
2018-12-15T11:30:23.718Z,7.15
2018-12-15T11:32:53.919Z,7.10
2018-12-15T11:35:24.185Z,7.09
2018-12-15T11:37:54.452Z,7.09
2018-12-15T11:40:24.728Z,7.19
2018-12-15T11:42:55.074Z,7.26
2018-12-15T11:45:25.216Z,7.31
2018-12-15T11:47:55.407Z,7.38
2018-12-15T11:50:26.893Z,7.33
2018-12-15T11:52:57.143Z,7.41
2018-12-15T11:55:27.383Z,7.43
2018-12-15T11:57:57.492Z,7.38
2018-12-15T12:00:28.684Z,7.41
2018-12-15T12:02:58.890Z,7.43
2018-12-15T12:05:29.111Z,7.42
2018-12-15T12:07:59.627Z,7.47
2018-12-15T12:10:29.972Z,7.46
2018-12-15T12:13:01.863Z,7.52
2018-12-15T12:15:32.504Z,7.64
2018-12-15T12:18:02.804Z,7.63
2018-12-15T12:20:35.162Z,7.65
2018-12-15T12:23:05.490Z,7.58
2018-12-15T12:25:37.672Z,7.51
2018-12-15T12:28:09.921Z,7.59
2018-12-15T12:30:40.088Z,7.57
2018-12-15T12:33:11.381Z,7.43
2018-12-15T12:35:41.577Z,7.45
2018-12-15T12:38:11.901Z,7.55
2018-12-15T12:40:42.068Z,7.57
2018-12-15T12:43:13.022Z,7.60
2018-12-15T12:45:43.344Z,7.70
2018-12-15T12:48:13.748Z,7.75
2018-12-15T12:50:44.011Z,7.79
2018-12-15T12:53:14.213Z,7.80
2018-12-15T12:55:45.195Z,7.85
2018-12-15T12:58:15.296Z,7.85
2018-12-15T13:00:45.612Z,7.84
2018-12-15T13:03:15.904Z,7.72
2018-12-15T13:05:46.172Z,7.77
2018-12-15T13:08:16.452Z,7.74
2018-12-15T13:10:46.673Z,7.60
2018-12-15T13:13:17.738Z,7.51
2018-12-15T13:15:47.971Z,7.61
2018-12-15T13:18:18.499Z,7.62
2018-12-15T13:20:48.820Z,7.54
2018-12-15T13:23:19.073Z,7.55
2018-12-15T13:25:49.436Z,7.43
2018-12-15T13:28:19.525Z,7.51
2018-12-15T13:30:49.863Z,7.48
2018-12-15T13:33:32.377Z,7.27
2018-12-15T13:36:02.844Z,7.14
2018-12-15T13:38:33.073Z,7.05
2018-12-15T13:41:03.419Z,6.94
2018-12-15T13:43:33.537Z,6.87
2018-12-15T13:46:03.936Z,6.75
2018-12-15T13:48:34.284Z,6.66
2018-12-15T13:51:04.494Z,6.63
2018-12-15T13:53:34.882Z,6.73
2018-12-15T13:56:05.185Z,6.70
2018-12-15T13:58:35.647Z,6.52
2018-12-15T14:01:06.121Z,6.35
2018-12-15T14:03:36.459Z,6.38
2018-12-15T14:06:06.640Z,6.46
2018-12-15T14:08:37.111Z,6.44
2018-12-15T14:11:07.598Z,6.42
2018-12-15T14:13:37.901Z,6.46
2018-12-15T14:16:08.175Z,6.41
2018-12-15T14:18:38.579Z,6.43
2018-12-15T14:21:08.811Z,6.47
2018-12-15T14:23:39.748Z,6.59
2018-12-15T14:26:09.969Z,6.58
2018-12-15T14:28:40.352Z,6.61
2018-12-15T14:31:10.571Z,6.57
2018-12-15T14:33:40.720Z,6.49
2018-12-15T14:36:11.722Z,6.53
2018-12-15T14:38:42.061Z,6.60
2018-12-15T14:41:12.292Z,6.70
2018-12-15T14:43:42.501Z,6.66
2018-12-15T14:46:12.746Z,6.46
2018-12-15T14:48:42.948Z,6.36
2018-12-15T14:51:13.183Z,6.33
2018-12-15T14:53:43.289Z,6.29
2018-12-15T14:56:13.945Z,6.12
2018-12-15T14:58:44.179Z,6.08
2018-12-15T15:01:15.132Z,5.99
2018-12-15T15:03:45.451Z,5.89
2018-12-15T15:06:15.624Z,5.97
2018-12-15T15:08:46.565Z,6.02
2018-12-15T15:11:16.998Z,5.98
2018-12-15T15:13:47.389Z,6.01
2018-12-15T15:16:17.770Z,6.11
2018-12-15T15:18:48.091Z,6.14
2018-12-15T15:21:18.505Z,6.11
2018-12-15T15:23:48.810Z,6.16
2018-12-15T15:26:19.081Z,6.29
2018-12-15T15:28:49.460Z,6.38
2018-12-15T15:31:19.924Z,6.35
2018-12-15T15:33:50.243Z,6.34
2018-12-15T15:36:20.609Z,6.34
2018-12-15T15:38:50.857Z,6.42
2018-12-15T15:41:21.146Z,6.44
2018-12-15T15:43:51.485Z,6.39
2018-12-15T15:46:21.863Z,6.44
2018-12-15T15:48:53.278Z,6.36
2018-12-15T15:51:24.279Z,6.44
2018-12-15T15:53:54.617Z,6.47
2018-12-15T15:56:25.039Z,6.52
2018-12-15T15:58:55.409Z,6.51
2018-12-15T16:01:25.702Z,6.51
2018-12-15T16:03:56.115Z,6.49
2018-12-15T16:06:26.559Z,6.37
2018-12-15T16:08:56.970Z,6.23
2018-12-15T16:11:29.160Z,6.21
2018-12-15T16:13:59.588Z,6.29
2018-12-15T16:16:34.996Z,6.35
2018-12-15T16:19:05.509Z,6.31
2018-12-15T16:21:35.653Z,6.34
2018-12-15T16:24:06.005Z,6.39
2018-12-15T16:26:37.354Z,6.41
2018-12-15T16:29:07.761Z,6.49
2018-12-15T16:31:38.240Z,6.57
2018-12-15T16:34:08.611Z,6.64
2018-12-15T16:36:39.018Z,6.67
2018-12-15T16:39:09.353Z,6.68
2018-12-15T16:41:42.376Z,6.67
2018-12-15T16:44:12.366Z,6.70
2018-12-15T16:46:42.577Z,6.77
2018-12-15T16:49:12.777Z,6.79
2018-12-15T16:51:43.153Z,6.81
2018-12-15T16:54:13.551Z,6.83
2018-12-15T16:56:43.924Z,6.79
2018-12-15T16:59:14.149Z,6.78
2018-12-15T17:01:44.683Z,6.75
2018-12-15T17:04:15.121Z,6.71
2018-12-15T17:06:45.418Z,6.73
2018-12-15T17:09:16.728Z,6.72
2018-12-15T17:11:47.099Z,6.71
2018-12-15T17:14:17.663Z,6.70
2018-12-15T17:16:47.957Z,6.64
2018-12-15T17:19:18.307Z,6.69
2018-12-15T17:21:48.755Z,6.72
2018-12-15T17:24:19.259Z,6.70
2018-12-15T17:26:49.566Z,6.67
2018-12-15T17:29:19.987Z,6.70
2018-12-15T17:31:50.324Z,6.76
2018-12-15T17:34:20.477Z,6.75
2018-12-15T17:36:50.803Z,6.53
2018-12-15T17:39:22.418Z,6.53
2018-12-15T17:41:52.904Z,6.60
2018-12-15T17:44:23.963Z,6.59
2018-12-15T17:46:54.164Z,6.62
2018-12-15T17:49:24.521Z,6.68
2018-12-15T17:51:54.712Z,6.74
2018-12-15T17:54:25.068Z,6.77
2018-12-15T17:56:55.464Z,6.74
2018-12-15T17:59:25.690Z,6.75
2018-12-15T18:01:55.934Z,6.74
2018-12-15T18:04:26.260Z,6.77
2018-12-15T18:06:56.436Z,6.79
2018-12-15T18:09:26.639Z,6.78
2018-12-15T18:11:56.879Z,6.78
2018-12-15T18:14:27.149Z,6.80
2018-12-15T18:16:57.530Z,6.81
2018-12-15T18:19:28.057Z,6.72
2018-12-15T18:21:58.213Z,6.77
2018-12-15T18:24:29.538Z,6.81
2018-12-15T18:26:59.766Z,6.79
2018-12-15T18:29:30.041Z,6.73
2018-12-15T18:32:00.472Z,6.63
2018-12-15T18:34:30.756Z,6.46
2018-12-15T18:37:00.936Z,6.38
2018-12-15T18:39:31.247Z,6.31
2018-12-15T18:42:01.631Z,6.31
2018-12-15T18:44:32.079Z,6.40
2018-12-15T18:47:02.351Z,6.44
2018-12-15T18:49:32.610Z,6.51
2018-12-15T18:52:02.863Z,6.53
2018-12-15T18:54:34.269Z,6.56
2018-12-15T18:57:04.999Z,6.60
2018-12-15T18:59:35.529Z,6.68
2018-12-15T19:02:06.024Z,6.67
2018-12-15T19:04:36.473Z,6.72
2018-12-15T19:07:06.782Z,6.78
2018-12-15T19:09:36.989Z,6.80
2018-12-15T19:12:07.366Z,6.83
2018-12-15T19:14:37.784Z,6.70
2018-12-15T19:17:08.154Z,6.60
2018-12-15T19:19:38.689Z,6.52
2018-12-15T19:22:08.913Z,6.47
2018-12-15T19:24:39.166Z,6.36
2018-12-15T19:27:09.530Z,6.25
2018-12-15T19:29:39.805Z,6.23
2018-12-15T19:32:11.079Z,6.25
2018-12-15T19:34:41.346Z,6.25
2018-12-15T19:37:11.583Z,6.28
2018-12-15T19:39:41.805Z,6.38
2018-12-15T19:42:12.015Z,6.40
2018-12-15T19:44:42.289Z,6.43
2018-12-15T19:47:12.464Z,6.32
2018-12-15T19:49:42.774Z,6.24
2018-12-15T19:52:13.073Z,6.24
2018-12-15T19:54:43.274Z,6.17
2018-12-15T19:57:13.717Z,6.13
2018-12-15T19:59:43.931Z,6.16
2018-12-15T20:02:14.151Z,6.22
2018-12-15T20:04:44.326Z,6.34
2018-12-15T20:07:14.613Z,6.43
2018-12-15T20:09:44.842Z,6.47
2018-12-15T20:12:15.032Z,6.45
2018-12-15T20:14:46.012Z,6.49
2018-12-15T20:17:16.313Z,6.54
2018-12-15T20:19:47.147Z,6.57
2018-12-15T20:22:17.552Z,6.58
2018-12-15T20:24:47.817Z,6.61
2018-12-15T20:27:18.078Z,6.63
2018-12-15T20:29:48.297Z,6.59
2018-12-15T20:32:18.566Z,6.63
2018-12-15T20:34:48.877Z,6.63
2018-12-15T20:37:19.244Z,6.63
2018-12-15T20:39:49.579Z,6.66
2018-12-15T20:42:19.839Z,6.69
2018-12-15T20:44:49.923Z,6.69
2018-12-15T20:47:20.161Z,6.73
2018-12-15T20:49:50.462Z,6.72
2018-12-15T20:52:20.726Z,6.75
2018-12-15T20:54:51.029Z,6.77
2018-12-15T20:57:21.222Z,6.74
2018-12-15T20:59:51.430Z,6.73
2018-12-15T21:02:21.870Z,6.84
2018-12-15T21:04:52.148Z,6.87
2018-12-15T21:07:22.422Z,6.84
2018-12-15T21:09:52.932Z,6.81
2018-12-15T21:12:23.220Z,6.64
2018-12-15T21:14:53.881Z,6.69
2018-12-15T21:17:24.472Z,6.76
2018-12-15T21:19:54.706Z,6.73
2018-12-15T21:22:24.880Z,6.74
2018-12-15T21:24:56.204Z,6.79
2018-12-15T21:27:26.449Z,6.86
2018-12-15T21:29:56.628Z,6.89
2018-12-15T21:32:26.860Z,6.91
2018-12-15T21:34:57.161Z,6.91
2018-12-15T21:37:27.561Z,6.89
2018-12-15T21:39:57.764Z,6.86
2018-12-15T21:42:28.061Z,6.71
2018-12-15T21:44:58.281Z,6.74
2018-12-15T21:47:28.730Z,6.73
2018-12-15T21:49:58.901Z,6.65
2018-12-15T21:52:29.125Z,6.49
2018-12-15T21:54:59.363Z,6.46
2018-12-15T21:57:29.647Z,6.41
2018-12-15T21:59:59.936Z,6.40
2018-12-15T22:02:30.020Z,6.46
2018-12-15T22:05:00.109Z,6.34
2018-12-15T22:07:30.574Z,6.39
2018-12-15T22:10:00.777Z,6.39
2018-12-15T22:12:30.940Z,6.43
2018-12-15T22:15:01.164Z,6.44
2018-12-15T22:17:32.126Z,6.46
2018-12-15T22:20:02.586Z,6.51
2018-12-15T22:22:32.775Z,6.54
2018-12-15T22:25:03.056Z,6.53
2018-12-15T22:27:33.296Z,6.54
2018-12-15T22:30:03.829Z,6.62
2018-12-15T22:32:33.939Z,6.73
2018-12-15T22:35:04.716Z,6.79
2018-12-15T22:37:34.962Z,6.85
2018-12-15T22:40:07.212Z,6.91
2018-12-15T22:42:37.425Z,6.99
2018-12-15T22:45:08.104Z,7.00
2018-12-15T22:47:38.296Z,7.01
2018-12-15T22:50:09.168Z,6.95
2018-12-15T22:52:39.395Z,6.95
2018-12-15T22:55:09.547Z,7.00
2018-12-15T22:57:39.707Z,7.11
2018-12-15T23:00:12.610Z,7.10
2018-12-15T23:02:44.870Z,7.13
2018-12-15T23:05:15.160Z,7.18
2018-12-15T23:07:45.528Z,7.13
2018-12-15T23:10:15.941Z,7.08
2018-12-15T23:12:46.203Z,7.03
2018-12-15T23:15:16.354Z,7.08
2018-12-15T23:17:46.548Z,7.09
2018-12-15T23:20:17.008Z,7.12
2018-12-15T23:22:47.232Z,7.12
2018-12-15T23:25:17.619Z,7.12
2018-12-15T23:27:47.798Z,7.13
2018-12-15T23:30:18.110Z,7.07
2018-12-15T23:32:48.274Z,7.02
2018-12-15T23:35:19.426Z,6.99
2018-12-15T23:37:49.684Z,7.05
2018-12-15T23:40:20.287Z,7.08
2018-12-15T23:42:51.068Z,7.05
2018-12-15T23:45:21.200Z,7.03
2018-12-15T23:47:51.400Z,7.05
2018-12-15T23:50:21.712Z,7.08
2018-12-15T23:52:52.514Z,7.08
2018-12-15T23:55:23.335Z,7.13
2018-12-15T23:57:53.601Z,7.13
